sensor_id;sensor_type;location;lat;lon;timestamp;pressure;altitude;pressure_sealevel;temperature;humidity
55291;BME280;41155;39.768;2.712;2023-02-28T00:00:33;100699.41;;;6.73;75.67
55291;BME280;41155;39.768;2.712;2023-02-28T00:02:59;100680.06;;;6.52;76.75
55291;BME280;41155;39.768;2.712;2023-02-28T00:05:26;100682.28;;;6.55;75.41
55291;BME280;41155;39.768;2.712;2023-02-28T00:07:52;100704.28;;;6.64;76.25
55291;BME280;41155;39.768;2.712;2023-02-28T00:10:20;100689.88;;;6.59;76.20
55291;BME280;41155;39.768;2.712;2023-02-28T00:12:48;100689.28;;;6.56;75.41
55291;BME280;41155;39.768;2.712;2023-02-28T00:15:14;100687.91;;;6.54;75.86
55291;BME280;41155;39.768;2.712;2023-02-28T00:17:40;100722.16;;;6.70;75.60
55291;BME280;41155;39.768;2.712;2023-02-28T00:20:06;100697.03;;;6.65;76.00
55291;BME280;41155;39.768;2.712;2023-02-28T00:22:42;100694.75;;;6.68;75.04
55291;BME280;41155;39.768;2.712;2023-02-28T00:25:09;100695.91;;;6.72;74.45
55291;BME280;41155;39.768;2.712;2023-02-28T00:27:36;100690.91;;;6.76;74.32
55291;BME280;41155;39.768;2.712;2023-02-28T00:30:02;100681.03;;;6.88;73.81
55291;BME280;41155;39.768;2.712;2023-02-28T00:32:29;100682.25;;;6.92;73.38
55291;BME280;41155;39.768;2.712;2023-02-28T00:34:55;100684.81;;;6.69;73.28
55291;BME280;41155;39.768;2.712;2023-02-28T00:37:20;100664.97;;;6.70;71.97
55291;BME280;41155;39.768;2.712;2023-02-28T00:39:46;100679.25;;;6.82;71.88
55291;BME280;41155;39.768;2.712;2023-02-28T00:42:11;100648.78;;;6.76;71.84
55291;BME280;41155;39.768;2.712;2023-02-28T00:44:37;100678.19;;;7.01;71.79
55291;BME280;41155;39.768;2.712;2023-02-28T00:47:02;100659.25;;;6.96;71.87
55291;BME280;41155;39.768;2.712;2023-02-28T00:49:28;100667.13;;;7.10;71.37
55291;BME280;41155;39.768;2.712;2023-02-28T00:51:55;100665.03;;;7.12;70.79
55291;BME280;41155;39.768;2.712;2023-02-28T00:54:22;100627.47;;;6.82;70.40
55291;BME280;41155;39.768;2.712;2023-02-28T00:56:48;100661.94;;;6.96;71.55
55291;BME280;41155;39.768;2.712;2023-02-28T00:59:15;100678.53;;;7.05;71.56
55291;BME280;41155;39.768;2.712;2023-02-28T01:01:42;100646.38;;;6.87;71.30
55291;BME280;41155;39.768;2.712;2023-02-28T01:04:08;100675.09;;;6.86;73.73
55291;BME280;41155;39.768;2.712;2023-02-28T01:06:33;100673.31;;;6.80;75.98
55291;BME280;41155;39.768;2.712;2023-02-28T01:08:59;100676.13;;;6.85;76.44
55291;BME280;41155;39.768;2.712;2023-02-28T01:11:25;100670.44;;;6.93;75.78
55291;BME280;41155;39.768;2.712;2023-02-28T01:13:51;100682.94;;;6.99;75.36
55291;BME280;41155;39.768;2.712;2023-02-28T01:16:17;100673.63;;;7.02;74.99
55291;BME280;41155;39.768;2.712;2023-02-28T01:18:43;100681.50;;;6.85;75.46
55291;BME280;41155;39.768;2.712;2023-02-28T01:21:12;100682.69;;;6.89;75.71
55291;BME280;41155;39.768;2.712;2023-02-28T01:23:39;100654.50;;;6.68;77.62
55291;BME280;41155;39.768;2.712;2023-02-28T01:26:18;100682.53;;;6.84;78.48
55291;BME280;41155;39.768;2.712;2023-02-28T01:28:45;100689.59;;;6.67;79.13
55291;BME280;41155;39.768;2.712;2023-02-28T01:31:11;100688.31;;;6.69;79.35
55291;BME280;41155;39.768;2.712;2023-02-28T01:33:38;100690.13;;;6.57;80.17
55291;BME280;41155;39.768;2.712;2023-02-28T01:36:18;100678.72;;;6.62;80.20
55291;BME280;41155;39.768;2.712;2023-02-28T01:38:44;100670.28;;;6.58;80.33
55291;BME280;41155;39.768;2.712;2023-02-28T01:41:28;100676.00;;;6.80;79.30
55291;BME280;41155;39.768;2.712;2023-02-28T01:43:59;100631.16;;;6.69;79.48
55291;BME280;41155;39.768;2.712;2023-02-28T01:46:32;100679.75;;;6.91;79.21
55291;BME280;41155;39.768;2.712;2023-02-28T01:49:08;100674.78;;;6.94;79.51
55291;BME280;41155;39.768;2.712;2023-02-28T01:51:41;100673.03;;;7.00;80.19
55291;BME280;41155;39.768;2.712;2023-02-28T01:54:13;100679.75;;;6.91;80.48
55291;BME280;41155;39.768;2.712;2023-02-28T01:56:44;100678.59;;;6.87;80.87
55291;BME280;41155;39.768;2.712;2023-02-28T01:59:13;100662.97;;;6.65;81.55
55291;BME280;41155;39.768;2.712;2023-02-28T02:01:40;100662.84;;;6.60;81.35
55291;BME280;41155;39.768;2.712;2023-02-28T02:04:05;100670.72;;;6.73;81.34
55291;BME280;41155;39.768;2.712;2023-02-28T02:06:37;100671.56;;;6.55;81.59
55291;BME280;41155;39.768;2.712;2023-02-28T02:09:03;100690.59;;;6.54;81.50
55291;BME280;41155;39.768;2.712;2023-02-28T02:11:29;100677.47;;;6.46;81.67
55291;BME280;41155;39.768;2.712;2023-02-28T02:14:30;100684.88;;;6.62;81.83
55291;BME280;41155;39.768;2.712;2023-02-28T02:22:21;100672.13;;;6.76;81.38
55291;BME280;41155;39.768;2.712;2023-02-28T02:28:20;100662.09;;;6.71;82.52
55291;BME280;41155;39.768;2.712;2023-02-28T02:36:42;100639.00;;;6.52;81.12
55291;BME280;41155;39.768;2.712;2023-02-28T02:44:20;100662.03;;;6.60;81.38
55291;BME280;41155;39.768;2.712;2023-02-28T02:46:50;100648.88;;;6.70;82.14
55291;BME280;41155;39.768;2.712;2023-02-28T02:49:24;100656.78;;;6.65;83.32
55291;BME280;41155;39.768;2.712;2023-02-28T02:51:52;100661.78;;;6.61;83.88
55291;BME280;41155;39.768;2.712;2023-02-28T02:54:48;100645.47;;;6.63;84.29
55291;BME280;41155;39.768;2.712;2023-02-28T02:57:25;100656.56;;;6.66;84.81
55291;BME280;41155;39.768;2.712;2023-02-28T02:59:55;100618.22;;;6.47;84.94
55291;BME280;41155;39.768;2.712;2023-02-28T03:02:21;100652.63;;;6.69;84.59
55291;BME280;41155;39.768;2.712;2023-02-28T03:04:52;100636.28;;;6.40;84.29
55291;BME280;41155;39.768;2.712;2023-02-28T03:07:19;100633.06;;;6.31;82.87
55291;BME280;41155;39.768;2.712;2023-02-28T03:09:55;100662.91;;;6.53;82.96
55291;BME280;41155;39.768;2.712;2023-02-28T03:12:28;100633.19;;;6.55;83.27
55291;BME280;41155;39.768;2.712;2023-02-28T03:15:35;100671.56;;;6.55;83.80
55291;BME280;41155;39.768;2.712;2023-02-28T03:18:17;100654.00;;;6.41;84.17
55291;BME280;41155;39.768;2.712;2023-02-28T03:21:11;100667.19;;;6.43;83.65
55291;BME280;41155;39.768;2.712;2023-02-28T03:23:59;100666.69;;;6.34;83.88
55291;BME280;41155;39.768;2.712;2023-02-28T03:26:30;100659.81;;;6.38;84.42
55291;BME280;41155;39.768;2.712;2023-02-28T03:29:06;100677.69;;;6.44;84.76
55291;BME280;41155;39.768;2.712;2023-02-28T03:31:44;100653.84;;;6.36;84.84
55291;BME280;41155;39.768;2.712;2023-02-28T03:34:26;100653.56;;;6.26;84.96
55291;BME280;41155;39.768;2.712;2023-02-28T03:36:59;100671.88;;;6.29;84.42
55291;BME280;41155;39.768;2.712;2023-02-28T03:39:34;100661.59;;;6.26;83.98
55291;BME280;41155;39.768;2.712;2023-02-28T03:42:06;100672.84;;;6.34;84.07
55291;BME280;41155;39.768;2.712;2023-02-28T03:44:46;100665.25;;;6.31;84.21
55291;BME280;41155;39.768;2.712;2023-02-28T03:47:39;100647.38;;;6.25;84.71
55291;BME280;41155;39.768;2.712;2023-02-28T03:50:24;100643.25;;;6.41;84.91
55291;BME280;41155;39.768;2.712;2023-02-28T03:58:51;100603.53;;;6.20;84.55
55291;BME280;41155;39.768;2.712;2023-02-28T04:01:20;100616.22;;;6.24;85.89
55291;BME280;41155;39.768;2.712;2023-02-28T04:03:49;100620.88;;;6.17;87.07
55291;BME280;41155;39.768;2.712;2023-02-28T04:06:18;100616.38;;;6.29;87.74
55291;BME280;41155;39.768;2.712;2023-02-28T04:08:44;100616.31;;;6.18;87.79
55291;BME280;41155;39.768;2.712;2023-02-28T04:13:58;100599.47;;;5.92;88.67
55291;BME280;41155;39.768;2.712;2023-02-28T04:16:23;100609.72;;;5.58;90.00
55291;BME280;41155;39.768;2.712;2023-02-28T04:18:49;100623.31;;;5.57;92.33
55291;BME280;41155;39.768;2.712;2023-02-28T04:21:14;100599.28;;;5.50;93.23
55291;BME280;41155;39.768;2.712;2023-02-28T04:23:39;100623.25;;;5.63;94.65
55291;BME280;41155;39.768;2.712;2023-02-28T04:26:05;100629.84;;;5.61;96.21
55291;BME280;41155;39.768;2.712;2023-02-28T04:28:31;100615.34;;;5.50;95.82
55291;BME280;41155;39.768;2.712;2023-02-28T04:30:59;100616.00;;;5.46;96.72
55291;BME280;41155;39.768;2.712;2023-02-28T04:33:25;100629.81;;;5.42;98.20
55291;BME280;41155;39.768;2.712;2023-02-28T04:36:05;100622.44;;;5.38;99.58
55291;BME280;41155;39.768;2.712;2023-02-28T04:38:38;100597.13;;;5.15;98.92
55291;BME280;41155;39.768;2.712;2023-02-28T04:41:04;100587.09;;;5.29;98.77
55291;BME280;41155;39.768;2.712;2023-02-28T04:43:31;100632.56;;;5.36;99.48
55291;BME280;41155;39.768;2.712;2023-02-28T04:46:00;100622.66;;;5.11;99.23
55291;BME280;41155;39.768;2.712;2023-02-28T04:48:31;100616.53;;;5.04;100.00
55291;BME280;41155;39.768;2.712;2023-02-28T04:51:01;100621.66;;;5.06;100.00
55291;BME280;41155;39.768;2.712;2023-02-28T04:53:28;100614.69;;;5.05;100.00
55291;BME280;41155;39.768;2.712;2023-02-28T04:55:54;100615.31;;;5.00;100.00
55291;BME280;41155;39.768;2.712;2023-02-28T04:58:20;100629.81;;;4.86;100.00
55291;BME280;41155;39.768;2.712;2023-02-28T05:00:48;100654.88;;;4.98;100.00
55291;BME280;41155;39.768;2.712;2023-02-28T05:03:13;100645.03;;;5.24;100.00
55291;BME280;41155;39.768;2.712;2023-02-28T05:05:39;100629.50;;;5.32;100.00
55291;BME280;41155;39.768;2.712;2023-02-28T05:08:04;100601.25;;;5.36;100.00
55291;BME280;41155;39.768;2.712;2023-02-28T05:10:30;100643.50;;;5.59;100.00
55291;BME280;41155;39.768;2.712;2023-02-28T05:12:56;100600.94;;;5.70;100.00
55291;BME280;41155;39.768;2.712;2023-02-28T05:15:22;100627.31;;;5.91;100.00
55291;BME280;41155;39.768;2.712;2023-02-28T05:17:48;100618.69;;;6.07;100.00
55291;BME280;41155;39.768;2.712;2023-02-28T05:20:13;100609.09;;;6.18;100.00
55291;BME280;41155;39.768;2.712;2023-02-28T05:22:39;100597.69;;;6.23;100.00
55291;BME280;41155;39.768;2.712;2023-02-28T05:25:06;100622.72;;;6.35;100.00
55291;BME280;41155;39.768;2.712;2023-02-28T05:27:32;100591.28;;;6.42;100.00
55291;BME280;41155;39.768;2.712;2023-02-28T05:29:57;100600.50;;;6.46;100.00
55291;BME280;41155;39.768;2.712;2023-02-28T05:32:24;100611.38;;;6.51;100.00
55291;BME280;41155;39.768;2.712;2023-02-28T05:34:49;100591.63;;;6.46;100.00
55291;BME280;41155;39.768;2.712;2023-02-28T05:37:15;100628.19;;;6.59;100.00
55291;BME280;41155;39.768;2.712;2023-02-28T05:39:41;100574.72;;;6.45;99.87
55291;BME280;41155;39.768;2.712;2023-02-28T05:42:07;100616.78;;;6.63;97.32
55291;BME280;41155;39.768;2.712;2023-02-28T05:44:33;100601.31;;;6.47;98.21
55291;BME280;41155;39.768;2.712;2023-02-28T05:46:59;100621.00;;;6.71;98.53
55291;BME280;41155;39.768;2.712;2023-02-28T05:49:24;100602.81;;;6.73;97.56
55291;BME280;41155;39.768;2.712;2023-02-28T05:51:50;100630.50;;;6.85;98.18
55291;BME280;41155;39.768;2.712;2023-02-28T05:54:15;100630.91;;;7.00;96.34
55291;BME280;41155;39.768;2.712;2023-02-28T05:56:41;100630.91;;;7.00;96.18
55291;BME280;41155;39.768;2.712;2023-02-28T05:59:09;100623.81;;;7.06;96.05
55291;BME280;41155;39.768;2.712;2023-02-28T06:01:41;100655.66;;;7.02;95.87
55291;BME280;41155;39.768;2.712;2023-02-28T06:04:09;100670.41;;;7.12;96.34
55291;BME280;41155;39.768;2.712;2023-02-28T06:06:36;100629.56;;;6.91;96.70
55291;BME280;41155;39.768;2.712;2023-02-28T06:09:06;100655.53;;;6.97;96.09
55291;BME280;41155;39.768;2.712;2023-02-28T06:11:32;100671.97;;;6.89;97.11
55291;BME280;41155;39.768;2.712;2023-02-28T06:13:58;100678.19;;;7.01;96.89
55291;BME280;41155;39.768;2.712;2023-02-28T06:16:26;100657.75;;;7.00;95.40
55291;BME280;41155;39.768;2.712;2023-02-28T06:18:51;100660.16;;;6.90;96.62
55291;BME280;41155;39.768;2.712;2023-02-28T06:21:18;100638.38;;;6.98;96.75
55291;BME280;41155;39.768;2.712;2023-02-28T06:23:44;100662.53;;;6.98;97.43
55291;BME280;41155;39.768;2.712;2023-02-28T06:26:10;100663.81;;;6.96;98.02
55291;BME280;41155;39.768;2.712;2023-02-28T06:28:36;100664.63;;;6.96;98.07
55291;BME280;41155;39.768;2.712;2023-02-28T06:31:09;100658.44;;;6.96;98.30
55291;BME280;41155;39.768;2.712;2023-02-28T06:33:36;100639.88;;;6.94;98.29
55291;BME280;41155;39.768;2.712;2023-02-28T06:36:03;100653.44;;;7.11;97.83
55291;BME280;41155;39.768;2.712;2023-02-28T06:38:28;100661.75;;;7.10;96.81
55291;BME280;41155;39.768;2.712;2023-02-28T06:40:55;100645.16;;;7.01;97.63
55291;BME280;41155;39.768;2.712;2023-02-28T06:43:22;100690.69;;;7.08;98.16
55291;BME280;41155;39.768;2.712;2023-02-28T06:45:48;100696.56;;;7.16;98.99
55291;BME280;41155;39.768;2.712;2023-02-28T06:48:13;100686.06;;;7.15;98.58
55291;BME280;41155;39.768;2.712;2023-02-28T06:50:39;100692.94;;;7.22;98.32
55291;BME280;41155;39.768;2.712;2023-02-28T06:53:04;100685.25;;;7.26;97.07
55291;BME280;41155;39.768;2.712;2023-02-28T06:55:30;100683.63;;;7.25;96.48
55291;BME280;41155;39.768;2.712;2023-02-28T06:57:55;100694.97;;;7.27;96.97
55291;BME280;41155;39.768;2.712;2023-02-28T07:00:21;100667.38;;;7.20;96.40
55291;BME280;41155;39.768;2.712;2023-02-28T07:02:46;100709.66;;;7.24;96.53
55291;BME280;41155;39.768;2.712;2023-02-28T07:05:12;100671.38;;;7.29;96.89
55291;BME280;41155;39.768;2.712;2023-02-28T07:07:38;100713.66;;;7.34;96.64
55291;BME280;41155;39.768;2.712;2023-02-28T07:10:06;100710.84;;;7.40;96.53
55291;BME280;41155;39.768;2.712;2023-02-28T07:12:32;100722.91;;;7.38;95.78
55291;BME280;41155;39.768;2.712;2023-02-28T07:14:57;100680.81;;;7.32;93.87
55291;BME280;41155;39.768;2.712;2023-02-28T07:17:23;100717.31;;;7.51;94.16
55291;BME280;41155;39.768;2.712;2023-02-28T07:19:48;100661.19;;;7.19;92.67
55291;BME280;41155;39.768;2.712;2023-02-28T07:22:14;100695.34;;;7.54;93.23
55291;BME280;41155;39.768;2.712;2023-02-28T07:24:39;100729.13;;;7.62;92.58
55291;BME280;41155;39.768;2.712;2023-02-28T07:27:05;100703.41;;;7.54;92.52
55291;BME280;41155;39.768;2.712;2023-02-28T07:29:30;100700.03;;;7.59;92.70
55291;BME280;41155;39.768;2.712;2023-02-28T07:31:56;100714.41;;;7.53;91.30
55291;BME280;41155;39.768;2.712;2023-02-28T07:34:22;100672.72;;;7.20;91.72
55291;BME280;41155;39.768;2.712;2023-02-28T07:36:47;100709.97;;;7.46;92.14
55291;BME280;41155;39.768;2.712;2023-02-28T07:39:13;100691.38;;;7.45;90.41
55291;BME280;41155;39.768;2.712;2023-02-28T07:41:38;100717.19;;;7.46;91.95
55291;BME280;41155;39.768;2.712;2023-02-28T07:44:10;100730.72;;;7.39;91.55
55291;BME280;41155;39.768;2.712;2023-02-28T07:46:36;100742.66;;;7.43;92.12
55291;BME280;41155;39.768;2.712;2023-02-28T07:49:01;100736.81;;;7.46;92.11
55291;BME280;41155;39.768;2.712;2023-02-28T07:51:29;100734.84;;;7.54;91.59
55291;BME280;41155;39.768;2.712;2023-02-28T07:53:54;100743.22;;;7.45;90.28
55291;BME280;41155;39.768;2.712;2023-02-28T07:56:20;100757.75;;;7.56;91.30
55291;BME280;41155;39.768;2.712;2023-02-28T07:58:45;100753.78;;;7.59;89.95
55291;BME280;41155;39.768;2.712;2023-02-28T08:01:11;100766.97;;;7.60;90.17
55291;BME280;41155;39.768;2.712;2023-02-28T08:03:38;100784.97;;;7.60;90.96
55291;BME280;41155;39.768;2.712;2023-02-28T08:06:04;100788.59;;;7.54;90.54
55291;BME280;41155;39.768;2.712;2023-02-28T08:08:31;100763.69;;;7.46;89.40
55291;BME280;41155;39.768;2.712;2023-02-28T08:11:01;100740.19;;;7.42;88.97
55291;BME280;41155;39.768;2.712;2023-02-28T08:13:28;100796.19;;;7.57;88.79
55291;BME280;41155;39.768;2.712;2023-02-28T08:15:55;100775.41;;;7.64;87.41
55291;BME280;41155;39.768;2.712;2023-02-28T08:18:21;100763.47;;;7.60;88.56
55291;BME280;41155;39.768;2.712;2023-02-28T08:20:47;100770.41;;;7.67;88.06
55291;BME280;41155;39.768;2.712;2023-02-28T08:23:13;100781.16;;;7.67;88.14
55291;BME280;41155;39.768;2.712;2023-02-28T08:25:38;100788.41;;;7.67;86.78
55291;BME280;41155;39.768;2.712;2023-02-28T08:28:04;100729.66;;;7.40;86.39
55291;BME280;41155;39.768;2.712;2023-02-28T08:30:29;100785.34;;;7.75;86.71
55291;BME280;41155;39.768;2.712;2023-02-28T08:32:55;100778.19;;;7.57;86.77
55291;BME280;41155;39.768;2.712;2023-02-28T08:35:21;100805.59;;;7.78;87.65
55291;BME280;41155;39.768;2.712;2023-02-28T08:37:50;100775.00;;;7.48;86.90
55291;BME280;41155;39.768;2.712;2023-02-28T08:40:16;100798.22;;;7.73;86.02
55291;BME280;41155;39.768;2.712;2023-02-28T08:42:47;100813.88;;;7.76;87.00
55291;BME280;41155;39.768;2.712;2023-02-28T08:45:13;100817.25;;;7.72;87.06
55291;BME280;41155;39.768;2.712;2023-02-28T08:47:40;100791.13;;;7.48;85.55
55291;BME280;41155;39.768;2.712;2023-02-28T08:50:06;100795.47;;;7.50;84.73
55291;BME280;41155;39.768;2.712;2023-02-28T08:52:31;100805.94;;;7.69;85.58
55291;BME280;41155;39.768;2.712;2023-02-28T08:54:57;100833.72;;;7.75;86.15
55291;BME280;41155;39.768;2.712;2023-02-28T08:57:22;100850.91;;;7.74;85.59
55291;BME280;41155;39.768;2.712;2023-02-28T08:59:48;100812.00;;;7.77;85.98
55291;BME280;41155;39.768;2.712;2023-02-28T09:02:13;100831.44;;;7.79;87.88
55291;BME280;41155;39.768;2.712;2023-02-28T09:04:40;100846.28;;;7.51;89.07
55291;BME280;41155;39.768;2.712;2023-02-28T09:07:06;100840.00;;;7.57;88.68
55291;BME280;41155;39.768;2.712;2023-02-28T09:09:31;100831.97;;;7.69;89.06
55291;BME280;41155;39.768;2.712;2023-02-28T09:11:57;100829.38;;;7.62;89.35
55291;BME280;41155;39.768;2.712;2023-02-28T09:14:22;100858.13;;;7.62;90.38
55291;BME280;41155;39.768;2.712;2023-02-28T09:16:48;100844.28;;;7.46;90.28
55291;BME280;41155;39.768;2.712;2023-02-28T09:19:13;100853.44;;;7.57;90.09
55291;BME280;41155;39.768;2.712;2023-02-28T09:21:39;100867.91;;;7.56;90.82
55291;BME280;41155;39.768;2.712;2023-02-28T09:24:05;100855.72;;;7.42;89.95
55291;BME280;41155;39.768;2.712;2023-02-28T09:26:31;100881.25;;;7.63;90.40
55291;BME280;41155;39.768;2.712;2023-02-28T09:28:56;100895.59;;;7.57;89.21
55291;BME280;41155;39.768;2.712;2023-02-28T09:31:26;100868.97;;;7.55;89.23
55291;BME280;41155;39.768;2.712;2023-02-28T09:33:55;100891.75;;;7.53;88.92
55291;BME280;41155;39.768;2.712;2023-02-28T09:36:22;100897.56;;;7.50;88.71
55291;BME280;41155;39.768;2.712;2023-02-28T09:38:48;100859.81;;;7.26;88.43
55291;BME280;41155;39.768;2.712;2023-02-28T09:41:24;100899.91;;;7.58;88.56
55291;BME280;41155;39.768;2.712;2023-02-28T09:43:56;100906.50;;;7.62;89.29
55291;BME280;41155;39.768;2.712;2023-02-28T09:46:36;100935.09;;;7.56;87.97
55291;BME280;41155;39.768;2.712;2023-02-28T09:49:08;100906.59;;;7.55;87.21
55291;BME280;41155;39.768;2.712;2023-02-28T09:54:20;100907.41;;;7.56;87.21
55291;BME280;41155;39.768;2.712;2023-02-28T09:59:31;100921.47;;;7.88;86.36
55291;BME280;41155;39.768;2.712;2023-02-28T10:02:20;100874.66;;;7.77;85.78
55291;BME280;41155;39.768;2.712;2023-02-28T10:10:04;100928.25;;;7.90;84.50
55291;BME280;41155;39.768;2.712;2023-02-28T10:12:31;100911.06;;;7.91;84.76
55291;BME280;41155;39.768;2.712;2023-02-28T10:14:59;100923.84;;;7.96;85.31
55291;BME280;41155;39.768;2.712;2023-02-28T10:17:37;100918.94;;;7.75;86.17
55291;BME280;41155;39.768;2.712;2023-02-28T10:20:15;100916.06;;;7.88;85.98
55291;BME280;41155;39.768;2.712;2023-02-28T10:25:45;100906.13;;;7.88;86.63
55291;BME280;41155;39.768;2.712;2023-02-28T10:28:16;100907.69;;;7.96;87.04
55291;BME280;41155;39.768;2.712;2023-02-28T10:30:52;100930.97;;;8.02;87.43
55291;BME280;41155;39.768;2.712;2023-02-28T10:33:26;100935.41;;;7.97;87.10
55291;BME280;41155;39.768;2.712;2023-02-28T10:35:53;100919.31;;;8.08;85.99
55291;BME280;41155;39.768;2.712;2023-02-28T10:38:39;100936.72;;;8.06;86.18
55291;BME280;41155;39.768;2.712;2023-02-28T10:41:09;100957.31;;;8.12;86.09
55291;BME280;41155;39.768;2.712;2023-02-28T10:43:35;100959.03;;;8.06;86.03
55291;BME280;41155;39.768;2.712;2023-02-28T10:46:03;100947.50;;;8.18;86.00
55291;BME280;41155;39.768;2.712;2023-02-28T10:48:33;100951.97;;;8.24;86.54
55291;BME280;41155;39.768;2.712;2023-02-28T10:51:00;100939.09;;;8.14;85.61
55291;BME280;41155;39.768;2.712;2023-02-28T10:53:56;100955.19;;;8.02;85.67
55291;BME280;41155;39.768;2.712;2023-02-28T10:56:25;100962.19;;;8.03;87.20
55291;BME280;41155;39.768;2.712;2023-02-28T11:01:27;100986.38;;;8.03;88.68
55291;BME280;41155;39.768;2.712;2023-02-28T11:03:58;101000.03;;;7.90;89.56
55291;BME280;41155;39.768;2.712;2023-02-28T11:06:32;100996.66;;;7.95;89.73
55291;BME280;41155;39.768;2.712;2023-02-28T11:08:59;101001.28;;;7.87;90.00
55291;BME280;41155;39.768;2.712;2023-02-28T11:11:29;100959.19;;;7.26;89.70
55291;BME280;41155;39.768;2.712;2023-02-28T11:14:03;101027.00;;;7.65;91.06
55291;BME280;41155;39.768;2.712;2023-02-28T11:16:37;100938.75;;;7.25;89.90
55291;BME280;41155;39.768;2.712;2023-02-28T11:19:03;100993.22;;;7.69;90.68
55291;BME280;41155;39.768;2.712;2023-02-28T11:21:32;100988.75;;;7.63;89.45
55291;BME280;41155;39.768;2.712;2023-02-28T11:24:12;100985.56;;;7.73;90.02
55291;BME280;41155;39.768;2.712;2023-02-28T11:26:47;100965.78;;;7.48;89.27
55291;BME280;41155;39.768;2.712;2023-02-28T11:29:24;101031.00;;;7.74;90.56
55291;BME280;41155;39.768;2.712;2023-02-28T11:32:16;101042.97;;;7.78;90.58
55291;BME280;41155;39.768;2.712;2023-02-28T11:34:44;101027.28;;;7.75;91.39
55291;BME280;41155;39.768;2.712;2023-02-28T11:37:17;101023.19;;;7.73;90.07
55291;BME280;41155;39.768;2.712;2023-02-28T11:39:44;101019.31;;;7.87;89.24
55291;BME280;41155;39.768;2.712;2023-02-28T11:42:20;101023.63;;;7.88;89.43
55291;BME280;41155;39.768;2.712;2023-02-28T11:52:40;101041.53;;;7.94;90.80
55291;BME280;41155;39.768;2.712;2023-02-28T11:55:24;101006.69;;;7.87;90.57
55291;BME280;41155;39.768;2.712;2023-02-28T12:01:15;101032.97;;;7.85;90.86
55291;BME280;41155;39.768;2.712;2023-02-28T12:06:28;101012.59;;;7.59;92.44
55291;BME280;41155;39.768;2.712;2023-02-28T12:11:55;101040.63;;;7.63;92.20
55291;BME280;41155;39.768;2.712;2023-02-28T12:23:10;101026.91;;;7.72;94.64
55291;BME280;41155;39.768;2.712;2023-02-28T12:28:28;101029.53;;;7.60;92.93
55291;BME280;41155;39.768;2.712;2023-02-28T12:31:01;101035.06;;;7.65;92.85
55291;BME280;41155;39.768;2.712;2023-02-28T12:33:38;101045.88;;;7.58;93.26
55291;BME280;41155;39.768;2.712;2023-02-28T12:36:10;101025.16;;;7.40;93.61
55291;BME280;41155;39.768;2.712;2023-02-28T12:38:47;101023.13;;;7.61;94.25
55291;BME280;41155;39.768;2.712;2023-02-28T12:42:05;101016.63;;;7.50;94.15
55291;BME280;41155;39.768;2.712;2023-02-28T12:44:09;101031.75;;;7.63;93.59
55291;BME280;41155;39.768;2.712;2023-02-28T12:46:41;101032.72;;;7.68;93.10
55291;BME280;41155;39.768;2.712;2023-02-28T12:49:33;101046.94;;;7.76;92.39
55291;BME280;41155;39.768;2.712;2023-02-28T12:52:03;101014.72;;;7.69;91.50
55291;BME280;41155;39.768;2.712;2023-02-28T12:54:56;101019.38;;;7.62;90.99
55291;BME280;41155;39.768;2.712;2023-02-28T12:58:05;101044.00;;;7.77;91.89
55291;BME280;41155;39.768;2.712;2023-02-28T13:00:36;101027.16;;;7.70;93.56
55291;BME280;41155;39.768;2.712;2023-02-28T13:03:22;101040.28;;;7.78;92.75
55291;BME280;41155;39.768;2.712;2023-02-28T13:09:05;101030.41;;;7.90;92.89
55291;BME280;41155;39.768;2.712;2023-02-28T13:11:43;101022.34;;;7.90;91.39
55291;BME280;41155;39.768;2.712;2023-02-28T13:14:39;101038.25;;;7.92;89.82
55291;BME280;41155;39.768;2.712;2023-02-28T13:19:45;101031.59;;;7.95;89.20
55291;BME280;41155;39.768;2.712;2023-02-28T13:22:43;101020.69;;;7.89;89.73
55291;BME280;41155;39.768;2.712;2023-02-28T13:27:47;101036.09;;;7.82;90.11
55291;BME280;41155;39.768;2.712;2023-02-28T13:35:45;101008.75;;;7.85;89.51
55291;BME280;41155;39.768;2.712;2023-02-28T13:38:23;101000.28;;;7.70;89.95
55291;BME280;41155;39.768;2.712;2023-02-28T13:40:49;101032.06;;;7.91;89.65
55291;BME280;41155;39.768;2.712;2023-02-28T13:43:17;101018.59;;;7.91;87.76
55291;BME280;41155;39.768;2.712;2023-02-28T13:46:10;101045.81;;;8.02;88.16
55291;BME280;41155;39.768;2.712;2023-02-28T13:48:37;101045.56;;;8.03;89.03
55291;BME280;41155;39.768;2.712;2023-02-28T13:51:40;101050.41;;;7.95;90.64
55291;BME280;41155;39.768;2.712;2023-02-28T13:57:33;101055.78;;;7.95;89.54
55291;BME280;41155;39.768;2.712;2023-02-28T14:08:34;101081.50;;;7.90;88.87
55291;BME280;41155;39.768;2.712;2023-02-28T14:11:05;101054.41;;;7.55;89.85
55291;BME280;41155;39.768;2.712;2023-02-28T14:13:41;101081.28;;;7.74;90.60
55291;BME280;41155;39.768;2.712;2023-02-28T14:16:15;101082.69;;;7.76;90.00
55291;BME280;41155;39.768;2.712;2023-02-28T14:18:50;101086.28;;;7.88;90.19
55291;BME280;41155;39.768;2.712;2023-02-28T14:21:23;101085.31;;;7.83;88.55
55291;BME280;41155;39.768;2.712;2023-02-28T14:27:15;101083.06;;;7.98;87.87
55291;BME280;41155;39.768;2.712;2023-02-28T14:32:32;101105.88;;;7.96;88.61
55291;BME280;41155;39.768;2.712;2023-02-28T14:35:20;101098.91;;;7.88;88.64
55291;BME280;41155;39.768;2.712;2023-02-28T14:37:49;101118.53;;;7.88;88.61
55291;BME280;41155;39.768;2.712;2023-02-28T14:40:35;101119.66;;;7.81;89.53
55291;BME280;41155;39.768;2.712;2023-02-28T14:43:05;101108.31;;;7.79;90.04
55291;BME280;41155;39.768;2.712;2023-02-28T14:45:33;101127.25;;;7.84;90.50
55291;BME280;41155;39.768;2.712;2023-02-28T14:48:01;101122.03;;;7.70;90.42
55291;BME280;41155;39.768;2.712;2023-02-28T14:50:35;101109.41;;;7.71;89.08
55291;BME280;41155;39.768;2.712;2023-02-28T14:53:02;101095.38;;;7.69;89.94
55291;BME280;41155;39.768;2.712;2023-02-28T14:55:30;101119.34;;;7.70;89.40
55291;BME280;41155;39.768;2.712;2023-02-28T14:58:04;101095.81;;;7.66;90.31
55291;BME280;41155;39.768;2.712;2023-02-28T15:00:47;101124.63;;;7.59;90.63